• Join FlightAware (Why Join?)
  • Login
  • US Flag 
01:47PM EDT


 

Airport Tracker/Info


-or-


 

Live Flight TrackerFlight Track Log ✈ ELJ733 ✈ 25-Aug-2013 ✈ KSAF - KDFW

Flight Track Log - Related Links

Times and Time Zones

All times are in EDT time to prevent confusion due to time zone crossing. See the ELJ733 flight status page for this flight to view local times or setup timezone preferences in your user account.

Time Position Orientation Groundspeed Altitude Reporting Facility
EDT Latitude Longitude Course Direction KTS MPH feet Rate Location/Type
05:26PM 35.5994 -106.1003 108° East 190 219 7,200  Level Albuquerque Center
05:27PM 35.5603 -106.0483 133° Southeast 250 288 10,600 3,600 Climbing Albuquerque Center
05:28PM 35.5292 -105.9747 117° Southeast 250 288 14,700 3,840 Climbing Albuquerque Center
05:29PM 35.4775 -105.9103 135° Southeast 236 272 18,500 3,000 Climbing Albuquerque Center
05:30PM 35.4528 -105.8339 112° Southeast 267 307 20,900 2,160 Climbing Albuquerque Center
05:31PM 35.4182 -105.3195 107° East  Level Estimated
05:31PM 35.4258 -105.7067 105° East 315 362 23,000  Level Albuquerque Center
05:32PM 35.3845 -105.1916 108° East  Level Estimated
05:32PM 35.3994 -105.5872 105° East 355 409 25,200  Level Albuquerque Center
05:33PM 35.3733 -105.4706 105° East 375 432 27,200 2,100 Climbing Albuquerque Center
05:34PM 35.3386 -105.3178 106° East 392 451 29,600 2,280 Climbing Albuquerque Center
05:35PM 35.3086 -105.1844 105° East 401 461 31,900 1,980 Climbing Albuquerque Center
05:36PM 35.2786 -105.0486 105° East 407 468 33,700 1,500 Climbing Albuquerque Center
05:38PM 35.2458 -104.9089 106° East 419 482 35,000 600 Climbing Albuquerque Center
05:39PM 35.2125 -104.7586 105° East 446 513 35,000  Level Albuquerque Center
05:40PM 35.1786 -104.6094 105° East 452 520 35,000 420 Level Albuquerque Center
05:41PM 35.1394 -104.4564 107° East 447 514 35,900 960 Climbing Albuquerque Center
05:42PM 35.1064 -104.3089 105° East 449 517 37,000 960 Climbing Albuquerque Center
05:43PM 35.0711 -104.1550 106° East 464 534 37,900 1,500 Climbing Albuquerque Center
05:44PM 35.0358 -103.9956 105° East 453 521 40,200 1,500 Climbing Albuquerque Center
05:45PM 35.0025 -103.8542 106° East 435 501 41,000 360 Climbing Albuquerque Center
05:46PM 34.9689 -103.7128 106° East 433 498 41,000  Level Albuquerque Center
05:47PM 34.9347 -103.5717 106° East 431 496 41,000  Level Albuquerque Center
05:48PM 34.9008 -103.4289 106° East 435 501 41,000  Level Albuquerque Center
05:49PM 34.8653 -103.2856 107° East 438 504 41,000  Level Albuquerque Center
05:50PM 34.8242 -103.1194 107° East 438 504 41,000  Level Albuquerque Center
05:51PM 34.7900 -102.9750 106° East 440 506 41,000  Level Albuquerque Center
05:52PM 34.7536 -102.8328 107° East 439 505 41,000  Level Albuquerque Center
05:53PM 34.7183 -102.6889 107° East 440 506 41,000  Level Albuquerque Center
05:54PM 34.6803 -102.5372 107° East 440 506 41,000  Level Albuquerque Center
05:55PM 34.6450 -102.3986 107° East 435 501 41,000  Level Albuquerque Center
05:56PM 34.6108 -102.2586 106° East 435 501 41,000  Level Albuquerque Center
05:57PM 34.5750 -102.1200 107° East 434 499 41,000  Level Albuquerque Center
05:58PM 34.5408 -101.9836 107° East 428 493 41,000  Level Albuquerque Center
05:59PM 34.5056 -101.8486 108° East 424 488 41,000  Level Albuquerque Center
06:00PM 34.4708 -101.7131 107° East 424 488 41,000  Level Albuquerque Center
06:01PM 34.4292 -101.5489 107° East 427 491 41,000  Level Albuquerque Center
06:02PM 34.3947 -101.4131 107° East 426 490 41,000  Level Albuquerque Center
06:03PM 34.3592 -101.2789 108° East 423 487 41,000  Level Albuquerque Center
06:04PM 34.3239 -101.1528 109° East 414 476 41,000  Level Fort Worth Center
06:05PM 34.2944 -101.0183 105° East 414 476 41,000  Level Fort Worth Center
06:06PM 34.2817 -100.8794 96° East 414 476 41,000  Level Fort Worth Center
06:07PM 34.2647 -100.7406 98° East 414 476 41,000  Level Fort Worth Center
06:08PM 34.2472 -100.6067 99° East 414 476 41,000  Level Fort Worth Center
06:09PM 34.2319 -100.4681 98° East 414 476 41,000  Level Fort Worth Center
06:10PM 34.2164 -100.3369 98° East 408 470 41,000  Level Fort Worth Center
06:11PM 34.1903 -100.1981 103° East 413 475 41,000  Level Fort Worth Center
06:12PM 34.1556 -100.0664 108° East 413 475 41,000  Level Fort Worth Center
06:13PM 34.1208 -99.9347 108° East 418 481 41,000  Level Fort Worth Center
06:14PM 34.0858 -99.7983 107° East 418 481 41,000  Level Fort Worth Center
06:15PM 34.0467 -99.6644 109° East 418 481 41,000 -120 Level Fort Worth Center
06:16PM 34.0114 -99.5258 107° East 428 493 40,800 -1,080 Descending Fort Worth Center
06:17PM 33.9742 -99.3894 108° East 428 493 38,900 -2,100 Descending Fort Worth Center
06:18PM 33.9347 -99.2383 107° East 428 493 36,600 -2,700 Descending Fort Worth Center
06:19PM 33.8969 -99.1000 108° East 428 493 33,500 -2,940 Descending Fort Worth Center
06:20PM 33.8589 -98.9667 109° East 428 493 30,800 -2,640 Descending Fort Worth Center
06:21PM 33.8228 -98.8411 109° East 423 487 28,300 -2,400 Descending Fort Worth Center
06:22PM 33.7908 -98.7131 107° East 407 468 26,000 -2,160 Descending Fort Worth Center
06:23PM 33.7525 -98.5800 109° East 407 468 24,000 -1,020 Descending Fort Worth Center
06:24PM 33.7161 -98.4547 109° East 407 468 24,000 -420 Level Fort Worth Center
06:25PM 33.6733 -98.3344 113° Southeast 402 463 23,200 -1,500 Descending Fort Worth Center
06:26PM 33.6239 -98.2167 117° Southeast 396 456 21,000 -2,580 Descending Fort Worth Center
06:27PM 33.5767 -98.1017 116° Southeast 384 442 18,100 -3,000 Descending Fort Worth Center
06:28PM 33.5292 -97.9942 118° Southeast 377 434 15,100 -2,820 Descending Fort Worth Center
06:29PM 33.4858 -97.8892 116° Southeast 365 420 12,500 -2,100 Descending Fort Worth Center
06:30PM 33.4464 -97.7944 117° Southeast 331 381 11,000 -780 Descending Fort Worth Center
06:31PM 33.4133 -97.7094 115° Southeast 289 333 11,000 -300 Level Fort Worth Center
06:32PM 33.3781 -97.6347 119° Southeast 276 318 10,400 -900 Descending Fort Worth Center
06:33PM 33.3500 -97.5833 123° Southeast 275 316 9,600 -1,320 Descending Dallas / Fort Worth TRACON
06:34PM 33.3000 -97.5333 140° Southeast 268 308 8,600 -1,260 Descending Dallas / Fort Worth TRACON
06:35PM 33.2667 -97.4500 116° Southeast 269 310 7,300 -1,560 Descending Dallas / Fort Worth TRACON
06:36PM 33.2500 -97.3667 103° East 232 267 5,200 -1,200 Descending Dallas / Fort Worth TRACON
06:37PM 33.2333 -97.3000 107° East 221 254 5,000 -120 Descending Dallas / Fort Worth TRACON
06:38PM 33.2000 -97.2333 121° Southeast 231 266 5,000 -360 Level Dallas / Fort Worth TRACON
06:39PM 33.1833 -97.1667 107° East 228 262 4,400 -780 Descending Dallas / Fort Worth TRACON
06:40PM 33.1333 -97.1167 140° Southeast 229 264 3,600 -720 Descending Dallas / Fort Worth TRACON
06:41PM 33.0833 -97.0833 151° Southeast 207 238 3,000 -300 Descending Dallas / Fort Worth TRACON
06:42PM 33.0500 -97.0333 128° Southeast 170 196 3,000 -300 Level Dallas / Fort Worth TRACON
06:43PM 33.0000 -97.0167 164° South 168 193 2,400 -780 Descending Dallas / Fort Worth TRACON
06:44PM 32.9667 -97.0167 180° South 159 183 1,500 -900 Descending Dallas / Fort Worth TRACON
06:44PM 32.9167 -97.0167 180° South 146 168 700 -900 Descending Dallas / Fort Worth TRACON
06:46PM 32.8968 -97.0380 140° Southeast  Level Estimated
06:53PM 32.8968 -97.0380 140° Southeast  Level Estimated